Airfield :







YOU CAN JOIN US ON...

 
LOGIN :

Register | Disclaimer

   EN    FR    IT 

 









Legend :    VFR   Marginal VFR   IFR   Intensive IFR   Very Intensive IFR
Visi :
Ceiling :
>= 8 km
>= 3000ft
5 to 8 km
1000 to 3000 ft
1500m to 5 km
500 to 1000 ft
800 to 1500m
200 to 500 ft
< 800m
< 200 ft
Symbols :   Thunderstorms  Fog  Heavy snow  Heavy precipitations  Wind > 20 kt






- Airport Elevation : 237 ft
- IATA code : BQN


TJBQ - Rafael Hernandez

EXPIRED METARs :
  • 020050Z 13004KT 10SM SCT027 OVC080 24/21 A2999
  • 012350Z 10005KT 10SM SCT039 BKN080 25/21 A2998

TAF TJBQ
Valid from the 02 at 00:00 until the 03 at 00:00 UTC


012339Z 0200/0224 09006KT P6SM VCSH SCT035 BKN070
FM021400 08014KT P6SM SCT080
FM021700 08014KT P6SM SCT030 SCT050 BKN100
FM022200 10006KT P6SM SCT035 SCT090 AMD NOT SKED 0202/0211
TJZS FIR / North America



MET'MAP, your aeronautical weather chart ! - Copyright ORBIFLY December 2007 - Disclaimer

ORBIFLY MET'MAP TEAM :

Programming & Development : Alexandra Zaïnal
Concept & original design : Baudouin d'Aumeries
Assistance for programming : Marc-Olivier Méhu
Technical & hardware support : Manuel Goepfert

Contact : metmap@orbifly.com




SOURCES & CREDITS :

   NOAA